createdAt,value
2018-06-08T00:00:52.218Z,13.90
2018-06-08T00:01:52.432Z,13.30
2018-06-08T00:02:52.660Z,13.50
2018-06-08T00:03:52.914Z,13.30
2018-06-08T00:04:53.129Z,13.80
2018-06-08T00:05:53.368Z,13.20
2018-06-08T00:06:53.598Z,13.40
2018-06-08T00:07:53.825Z,13.40
2018-06-08T00:08:54.065Z,13.50
2018-06-08T00:09:54.338Z,13.30
2018-06-08T00:10:54.555Z,14.10
2018-06-08T00:11:54.788Z,13.50
2018-06-08T00:12:55.032Z,13.90
2018-06-08T00:13:55.277Z,14.90
2018-06-08T00:14:55.507Z,14.80
2018-06-08T00:15:55.752Z,15.30
2018-06-08T00:16:56.001Z,14.70
2018-06-08T00:17:56.242Z,14.30
2018-06-08T00:18:56.460Z,14.50
2018-06-08T00:19:56.701Z,14.00
2018-06-08T00:20:56.950Z,14.40
2018-06-08T00:21:57.190Z,14.90
2018-06-08T00:22:57.427Z,14.50
2018-06-08T00:23:57.671Z,14.40
2018-06-08T00:24:57.913Z,14.10
2018-06-08T00:25:58.158Z,14.90
2018-06-08T00:26:58.417Z,14.40
2018-06-08T00:27:58.642Z,13.40
2018-06-08T00:28:58.878Z,15.40
2018-06-08T00:29:59.110Z,14.00
2018-06-08T00:30:59.359Z,14.20
2018-06-08T00:31:59.602Z,14.20
2018-06-08T00:32:59.837Z,15.40
2018-06-08T00:34:00.077Z,13.90
2018-06-08T00:35:00.316Z,14.90
2018-06-08T00:36:00.543Z,14.40
2018-06-08T00:37:00.797Z,14.00
2018-06-08T00:38:01.020Z,13.40
2018-06-08T00:39:01.276Z,14.10
2018-06-08T00:40:01.521Z,13.10
2018-06-08T00:41:01.767Z,14.00
2018-06-08T00:42:02.011Z,13.30
2018-06-08T00:43:02.261Z,13.40
2018-06-08T00:44:02.499Z,13.10
2018-06-08T00:45:02.746Z,13.10
2018-06-08T00:46:02.976Z,12.80
2018-06-08T00:47:03.217Z,12.90
2018-06-08T00:48:03.473Z,13.10
2018-06-08T00:49:03.694Z,13.00
2018-06-08T00:50:03.943Z,14.60
2018-06-08T00:51:04.194Z,14.60
2018-06-08T00:52:04.440Z,15.30
2018-06-08T00:53:04.678Z,14.90
2018-06-08T00:54:04.921Z,15.00
2018-06-08T00:55:05.200Z,15.20
2018-06-08T00:56:05.406Z,15.50
2018-06-08T00:57:05.676Z,15.30
2018-06-08T00:58:05.896Z,15.50
2018-06-08T00:59:06.119Z,15.20
2018-06-08T01:00:06.359Z,15.40
2018-06-08T01:01:06.591Z,15.70
2018-06-08T01:02:06.835Z,16.30
2018-06-08T01:03:07.085Z,15.20
2018-06-08T01:04:07.323Z,15.90
2018-06-08T01:05:07.555Z,15.40
2018-06-08T01:06:07.830Z,15.10
2018-06-08T01:07:08.049Z,16.00
2018-06-08T01:08:08.293Z,14.30
2018-06-08T01:09:08.524Z,14.60
2018-06-08T01:10:08.769Z,14.40
2018-06-08T01:11:08.989Z,14.80
2018-06-08T01:12:09.246Z,14.30
2018-06-08T01:13:09.488Z,14.40
2018-06-08T01:14:09.716Z,13.50
2018-06-08T01:15:09.947Z,14.80
2018-06-08T01:16:10.194Z,13.90
2018-06-08T01:17:10.423Z,14.60
2018-06-08T01:18:10.673Z,15.80
2018-06-08T01:19:10.916Z,15.20
2018-06-08T01:20:11.155Z,15.80
2018-06-08T01:21:11.383Z,16.90
2018-06-08T01:22:11.664Z,17.00
2018-06-08T01:23:11.897Z,17.50
2018-06-08T01:24:12.137Z,17.80
2018-06-08T01:25:12.372Z,17.90
2018-06-08T01:26:12.632Z,18.20
2018-06-08T01:27:12.860Z,17.70
2018-06-08T01:28:13.112Z,18.70
2018-06-08T01:29:13.360Z,18.10
2018-06-08T01:30:13.591Z,19.00
2018-06-08T01:31:13.862Z,18.50
2018-06-08T01:32:14.074Z,19.30
2018-06-08T01:33:14.331Z,19.80
2018-06-08T01:34:14.545Z,20.90
2018-06-08T01:35:14.798Z,19.60
2018-06-08T01:36:15.031Z,20.50
2018-06-08T01:37:15.260Z,20.90
2018-06-08T01:38:15.543Z,21.10
2018-06-08T01:39:15.737Z,20.70
2018-06-08T01:40:15.999Z,21.00
2018-06-08T01:41:16.210Z,20.90
2018-06-08T01:42:16.458Z,20.90
2018-06-08T01:43:16.681Z,20.90
2018-06-08T01:44:16.914Z,21.20
2018-06-08T01:45:17.159Z,19.50
2018-06-08T01:46:17.409Z,19.70
2018-06-08T01:47:17.661Z,19.70
2018-06-08T01:48:17.880Z,19.00
2018-06-08T01:49:18.120Z,19.70
2018-06-08T01:50:18.354Z,20.50
2018-06-08T01:51:18.578Z,21.60
2018-06-08T01:52:18.835Z,21.00
2018-06-08T01:53:19.079Z,21.10
2018-06-08T01:54:19.316Z,22.40
2018-06-08T01:55:19.552Z,21.40
2018-06-08T01:56:19.777Z,21.70
2018-06-08T01:57:20.017Z,22.20
2018-06-08T01:58:20.278Z,22.50
2018-06-08T01:59:20.505Z,22.10
2018-06-08T02:00:20.746Z,21.20
2018-06-08T02:01:20.979Z,21.40
2018-06-08T02:02:21.217Z,20.90
2018-06-08T02:03:21.443Z,21.10
2018-06-08T02:04:21.686Z,20.30
2018-06-08T02:05:21.941Z,22.00
2018-06-08T02:06:22.173Z,22.10
2018-06-08T02:07:22.425Z,21.70
2018-06-08T02:08:22.696Z,21.80
2018-06-08T02:09:22.893Z,20.80
2018-06-08T02:10:23.146Z,20.90
2018-06-08T02:11:23.386Z,20.90
2018-06-08T02:12:23.642Z,20.00
2018-06-08T02:13:23.855Z,20.60
2018-06-08T02:14:24.096Z,20.50
2018-06-08T02:15:24.335Z,21.70
2018-06-08T02:16:24.572Z,21.30
2018-06-08T02:17:24.820Z,21.10
2018-06-08T02:18:25.077Z,20.20
2018-06-08T02:19:25.293Z,21.50
2018-06-08T02:20:25.554Z,21.40
2018-06-08T02:21:25.804Z,22.10
2018-06-08T02:22:26.021Z,22.20
2018-06-08T02:23:26.268Z,22.40
2018-06-08T02:24:26.498Z,22.30
2018-06-08T02:25:26.739Z,21.50
2018-06-08T02:26:26.999Z,22.90
2018-06-08T02:27:27.234Z,22.50
2018-06-08T02:28:27.448Z,21.30
2018-06-08T02:29:27.691Z,21.50
2018-06-08T02:30:27.937Z,21.70
2018-06-08T02:31:28.173Z,22.00
2018-06-08T02:32:28.397Z,22.20
2018-06-08T02:33:28.664Z,22.60
2018-06-08T02:34:28.906Z,21.40
2018-06-08T02:35:29.147Z,23.50
2018-06-08T02:36:29.388Z,23.80
2018-06-08T02:37:29.664Z,23.60
2018-06-08T02:38:29.865Z,22.40
2018-06-08T02:39:30.131Z,22.40
2018-06-08T02:40:30.323Z,22.10
2018-06-08T02:41:30.575Z,22.30
2018-06-08T02:42:30.818Z,20.50
2018-06-08T02:43:31.070Z,20.50
2018-06-08T02:44:31.265Z,21.80
2018-06-08T02:45:31.534Z,21.70
2018-06-08T02:46:31.777Z,21.60
2018-06-08T02:47:32.025Z,22.00
2018-06-08T02:48:32.255Z,21.30
2018-06-08T02:49:32.501Z,21.80
2018-06-08T02:50:32.743Z,23.60
2018-06-08T02:51:32.990Z,22.70
2018-06-08T02:52:33.221Z,23.60
2018-06-08T02:53:33.487Z,21.90
2018-06-08T02:54:33.708Z,22.70
2018-06-08T02:55:33.942Z,22.90
2018-06-08T02:56:34.185Z,23.10
2018-06-08T02:57:34.443Z,22.90
2018-06-08T02:58:34.658Z,22.30
2018-06-08T02:59:34.911Z,22.90
2018-06-08T03:00:35.158Z,22.10
2018-06-08T03:01:35.406Z,22.70
2018-06-08T03:02:35.645Z,23.60
2018-06-08T03:03:35.875Z,21.80
2018-06-08T03:04:36.124Z,21.90
2018-06-08T03:05:36.378Z,21.80
2018-06-08T03:06:36.597Z,22.30
2018-06-08T03:07:36.855Z,22.10
2018-06-08T03:08:37.102Z,22.30
2018-06-08T03:09:37.357Z,21.80
2018-06-08T03:10:37.584Z,22.20
2018-06-08T03:11:37.851Z,21.10
2018-06-08T03:12:38.071Z,20.60
2018-06-08T03:13:38.328Z,19.70
2018-06-08T03:14:38.563Z,17.20
2018-06-08T03:15:38.803Z,18.10
2018-06-08T03:16:39.040Z,19.30
2018-06-08T03:17:39.275Z,19.30
2018-06-08T03:18:39.526Z,20.10
2018-06-08T03:19:39.748Z,18.40
2018-06-08T03:20:39.982Z,19.60
2018-06-08T03:21:40.230Z,20.70
2018-06-08T03:22:40.466Z,20.90
2018-06-08T03:23:40.712Z,20.00
2018-06-08T03:24:40.969Z,19.50
2018-06-08T03:25:41.201Z,19.30
2018-06-08T03:26:41.423Z,19.30
2018-06-08T03:27:41.658Z,19.60
2018-06-08T03:28:41.902Z,19.40
2018-06-08T03:29:42.150Z,18.60
2018-06-08T03:30:42.376Z,19.20
2018-06-08T03:31:42.629Z,18.40
2018-06-08T03:32:42.872Z,18.80
2018-06-08T03:33:43.073Z,18.20
2018-06-08T03:34:43.327Z,17.80
2018-06-08T03:35:43.553Z,18.90
2018-06-08T03:36:43.793Z,19.10
2018-06-08T03:37:44.052Z,19.60
2018-06-08T03:38:44.336Z,19.40
2018-06-08T03:39:44.529Z,20.20
2018-06-08T03:40:44.768Z,19.40
2018-06-08T03:41:45.008Z,18.60
2018-06-08T03:42:45.258Z,18.90
2018-06-08T03:43:45.487Z,18.30
2018-06-08T03:44:45.730Z,19.60
2018-06-08T03:45:45.974Z,19.80
2018-06-08T03:46:46.217Z,20.00
2018-06-08T03:47:46.464Z,19.00
2018-06-08T03:48:46.689Z,20.30
2018-06-08T03:49:46.929Z,18.20
2018-06-08T03:50:47.193Z,18.90
2018-06-08T03:51:47.423Z,20.00
2018-06-08T03:52:47.667Z,18.50
2018-06-08T03:53:47.892Z,19.30
2018-06-08T03:54:48.138Z,19.10
2018-06-08T03:55:48.391Z,19.40
2018-06-08T03:56:48.618Z,19.30
2018-06-08T03:57:48.886Z,19.90
2018-06-08T03:58:49.111Z,19.10
2018-06-08T03:59:49.341Z,19.00
2018-06-08T04:00:49.583Z,18.40
2018-06-08T04:01:49.818Z,18.90
2018-06-08T04:02:50.060Z,18.70
2018-06-08T04:03:50.299Z,19.10
2018-06-08T04:04:50.549Z,18.70
2018-06-08T04:05:50.793Z,19.40
2018-06-08T04:06:51.030Z,18.40
2018-06-08T04:07:51.277Z,19.10
2018-06-08T04:08:51.536Z,18.20
2018-06-08T04:09:51.739Z,19.90
2018-06-08T04:10:51.983Z,18.90
2018-06-08T04:11:52.217Z,20.30
2018-06-08T04:12:52.468Z,20.50
2018-06-08T04:13:52.677Z,20.70
2018-06-08T04:14:52.910Z,22.60
2018-06-08T04:15:53.167Z,21.40
2018-06-08T04:16:53.418Z,23.00
2018-06-08T04:17:53.663Z,21.10
2018-06-08T04:18:53.930Z,20.20
2018-06-08T04:19:54.147Z,19.90
2018-06-08T04:20:54.403Z,19.00
2018-06-08T04:21:54.649Z,16.60
2018-06-08T04:22:54.868Z,18.10
2018-06-08T04:23:55.172Z,18.30
2018-06-08T04:24:55.352Z,18.30
2018-06-08T04:25:55.602Z,19.10
2018-06-08T04:26:55.868Z,19.40
2018-06-08T04:27:56.132Z,19.00
2018-06-08T04:28:56.378Z,18.70
2018-06-08T04:29:56.609Z,17.90
2018-06-08T04:30:56.845Z,18.00
2018-06-08T04:31:57.089Z,18.70
2018-06-08T04:32:57.386Z,19.10
2018-06-08T04:33:57.585Z,17.60
2018-06-08T04:34:57.823Z,18.40
2018-06-08T04:35:58.091Z,19.50
2018-06-08T04:36:58.293Z,18.30
2018-06-08T04:37:58.559Z,18.20
2018-06-08T04:38:58.818Z,17.70
2018-06-08T04:39:59.038Z,19.30
2018-06-08T04:40:59.290Z,17.50
2018-06-08T04:41:59.533Z,20.10
2018-06-08T04:42:59.779Z,19.90
2018-06-08T04:43:59.992Z,20.30
2018-06-08T04:45:00.240Z,21.80
2018-06-08T04:46:00.485Z,21.50
2018-06-08T04:47:00.730Z,21.10
2018-06-08T04:48:00.972Z,20.90
2018-06-08T04:49:01.214Z,22.60
2018-06-08T04:50:01.482Z,23.40
2018-06-08T04:51:01.680Z,23.90
2018-06-08T04:52:01.947Z,23.30
2018-06-08T04:53:02.193Z,27.90
2018-06-08T04:54:02.469Z,26.50
2018-06-08T04:55:02.675Z,26.60
2018-06-08T04:56:02.918Z,27.60
2018-06-08T04:57:03.172Z,26.40
2018-06-08T04:58:03.404Z,26.80
2018-06-08T04:59:03.646Z,26.10
2018-06-08T05:00:03.884Z,26.30
2018-06-08T05:01:04.131Z,27.10
2018-06-08T05:02:04.369Z,27.10
2018-06-08T05:03:04.692Z,25.90
2018-06-08T05:04:04.877Z,26.50
2018-06-08T05:05:05.119Z,26.50
2018-06-08T05:06:05.340Z,26.60
2018-06-08T05:07:05.592Z,25.30
2018-06-08T05:08:05.848Z,26.50
2018-06-08T05:09:06.077Z,25.60
2018-06-08T05:10:06.348Z,25.90
2018-06-08T05:11:06.564Z,24.20
2018-06-08T05:12:06.825Z,23.70
2018-06-08T05:13:07.048Z,23.50
2018-06-08T05:14:07.357Z,23.40
2018-06-08T05:15:07.557Z,24.00
2018-06-08T05:16:07.805Z,22.50
2018-06-08T05:17:08.068Z,20.00
2018-06-08T05:18:08.271Z,18.50
2018-06-08T05:19:08.554Z,18.20
2018-06-08T05:20:08.744Z,18.00
2018-06-08T05:21:08.987Z,17.80
2018-06-08T05:22:09.233Z,17.30
2018-06-08T05:23:09.469Z,17.50
2018-06-08T05:24:09.715Z,16.70
2018-06-08T05:25:09.944Z,17.30
2018-06-08T05:26:10.193Z,17.90
2018-06-08T05:27:10.465Z,17.30
2018-06-08T05:28:10.684Z,16.10
2018-06-08T05:29:10.912Z,16.20
2018-06-08T05:30:11.176Z,16.20
2018-06-08T05:31:11.414Z,17.20
2018-06-08T05:32:11.648Z,16.90
2018-06-08T05:33:11.873Z,17.00
2018-06-08T05:34:12.101Z,16.90
2018-06-08T05:35:20.984Z,16.10
2018-06-08T05:36:21.396Z,16.70
2018-06-08T05:37:21.884Z,16.30
2018-06-08T05:38:22.211Z,16.20
2018-06-08T05:39:22.588Z,16.10
2018-06-08T05:40:14.336Z,16.80
2018-06-08T05:41:23.273Z,15.80
2018-06-08T05:42:15.004Z,15.50
2018-06-08T05:43:15.195Z,15.80
2018-06-08T05:44:24.136Z,15.00
2018-06-08T05:45:15.844Z,14.90
2018-06-08T05:46:16.053Z,16.30
2018-06-08T05:47:25.933Z,15.20
2018-06-08T05:48:16.547Z,17.20
2018-06-08T05:49:16.784Z,17.00
2018-06-08T05:50:17.014Z,18.00
2018-06-08T05:51:17.238Z,18.00
2018-06-08T05:52:17.497Z,18.80
2018-06-08T05:53:17.728Z,18.40
2018-06-08T05:54:18.012Z,18.90
2018-06-08T05:55:18.213Z,18.40
2018-06-08T05:56:18.459Z,18.30
2018-06-08T05:57:18.716Z,18.40
2018-06-08T05:58:18.980Z,17.90
2018-06-08T05:59:19.179Z,18.30
2018-06-08T06:00:19.438Z,18.30
2018-06-08T06:01:19.697Z,18.80
2018-06-08T06:02:19.929Z,17.30
2018-06-08T06:03:20.193Z,17.00
2018-06-08T06:04:20.430Z,17.50
2018-06-08T06:05:20.676Z,17.60
2018-06-08T06:06:20.911Z,18.20
2018-06-08T06:07:21.152Z,16.90
2018-06-08T06:08:21.388Z,16.50
2018-06-08T06:09:21.632Z,15.70
2018-06-08T06:10:21.887Z,15.50
2018-06-08T06:11:22.133Z,15.40
2018-06-08T06:12:31.083Z,15.00
2018-06-08T06:13:22.782Z,14.70
2018-06-08T06:14:23.049Z,14.90
2018-06-08T06:15:23.239Z,15.40
2018-06-08T06:16:23.518Z,15.10
2018-06-08T06:17:23.721Z,15.10
2018-06-08T06:18:32.673Z,15.30
2018-06-08T06:19:24.417Z,14.80
2018-06-08T06:20:33.364Z,15.50
2018-06-08T06:21:24.992Z,15.00
2018-06-08T06:22:25.252Z,16.10
2018-06-08T06:23:34.123Z,15.40
2018-06-08T06:24:25.942Z,15.90
2018-06-08T06:25:26.096Z,16.40
2018-06-08T06:26:35.098Z,17.10
2018-06-08T06:27:35.492Z,16.20
2018-06-08T06:28:36.905Z,15.90
2018-06-08T06:29:27.465Z,15.60
2018-06-08T06:30:27.646Z,14.90
2018-06-08T06:31:27.894Z,14.20
2018-06-08T06:32:36.944Z,14.90
2018-06-08T06:33:37.253Z,13.80
2018-06-08T06:34:29.031Z,14.50
2018-06-08T06:35:29.211Z,15.10
2018-06-08T06:36:38.296Z,14.50
2018-06-08T06:37:38.455Z,13.70
2018-06-08T06:38:38.761Z,14.90
2018-06-08T06:39:39.152Z,14.30
2018-06-08T06:40:39.812Z,13.30
2018-06-08T06:41:39.720Z,14.20
2018-06-08T06:42:40.108Z,12.70
2018-06-08T06:43:39.467Z,14.00
2018-06-08T06:44:32.123Z,14.60
2018-06-08T06:45:32.366Z,14.20
2018-06-08T06:46:32.621Z,14.20
2018-06-08T06:47:32.868Z,14.20
2018-06-08T06:48:33.128Z,12.80
2018-06-08T06:49:33.359Z,12.90
2018-06-08T06:50:33.604Z,12.10
2018-06-08T06:51:33.850Z,11.70
2018-06-08T06:52:34.088Z,11.30
2018-06-08T06:53:34.332Z,11.90
2018-06-08T06:54:34.582Z,12.40
2018-06-08T06:55:34.827Z,12.20
2018-06-08T06:56:35.088Z,12.20
2018-06-08T06:57:35.319Z,11.40
2018-06-08T06:58:35.556Z,11.60
2018-06-08T06:59:35.805Z,10.30
2018-06-08T07:00:36.040Z,11.50
2018-06-08T07:01:36.289Z,11.10
2018-06-08T07:02:36.543Z,10.50
2018-06-08T07:03:36.805Z,10.50
2018-06-08T07:04:37.042Z,10.40
2018-06-08T07:05:37.285Z,10.10
2018-06-08T07:06:37.528Z,10.00
2018-06-08T07:07:37.770Z,10.10
2018-06-08T07:08:38.019Z,10.00
2018-06-08T07:09:38.269Z,9.70
2018-06-08T07:10:38.504Z,9.30
2018-06-08T07:11:38.750Z,8.90
2018-06-08T07:12:38.987Z,9.60
2018-06-08T07:13:39.239Z,9.10
2018-06-08T07:14:39.478Z,9.30
2018-06-08T07:15:39.737Z,9.50
2018-06-08T07:16:39.971Z,8.90
2018-06-08T07:17:40.214Z,8.90
2018-06-08T07:18:40.467Z,8.50
2018-06-08T07:19:40.705Z,8.50
2018-06-08T07:20:40.959Z,8.30
2018-06-08T07:21:41.199Z,8.50
2018-06-08T07:22:41.441Z,8.10
2018-06-08T07:23:41.706Z,8.60
2018-06-08T07:24:41.956Z,8.80
2018-06-08T07:25:42.210Z,8.50
2018-06-08T07:26:42.441Z,8.60
2018-06-08T07:27:42.688Z,7.70
2018-06-08T07:28:42.936Z,9.20
2018-06-08T07:29:43.186Z,8.10
2018-06-08T07:30:43.436Z,8.60
2018-06-08T07:31:43.755Z,8.40
2018-06-08T07:32:43.924Z,9.40
2018-06-08T07:33:44.177Z,8.60
2018-06-08T07:34:44.432Z,8.50
2018-06-08T07:35:44.673Z,8.80
2018-06-08T07:36:44.914Z,8.70
2018-06-08T07:37:45.174Z,8.90
2018-06-08T07:38:45.415Z,8.90
2018-06-08T07:39:45.648Z,9.10
2018-06-08T07:40:45.898Z,9.40
2018-06-08T07:41:46.146Z,8.30
2018-06-08T07:42:46.406Z,8.40
2018-06-08T07:43:46.647Z,9.00
2018-06-08T07:44:46.898Z,8.50
2018-06-08T07:45:47.149Z,9.50
2018-06-08T07:46:47.457Z,9.50
2018-06-08T07:47:47.647Z,8.40
2018-06-08T07:48:47.894Z,8.70
2018-06-08T07:49:48.147Z,8.90
2018-06-08T07:50:48.391Z,9.20
2018-06-08T07:51:48.643Z,7.50
2018-06-08T07:52:48.896Z,6.80
2018-06-08T07:53:49.148Z,7.30
2018-06-08T07:54:49.396Z,7.40
2018-06-08T07:55:49.680Z,6.90
2018-06-08T07:56:49.913Z,6.60
2018-06-08T07:57:50.188Z,7.30
2018-06-08T07:58:50.423Z,7.10
2018-06-08T07:59:50.674Z,6.20
2018-06-08T08:00:50.907Z,5.20
2018-06-08T08:01:51.155Z,4.80
2018-06-08T08:02:51.405Z,4.70
2018-06-08T08:03:51.648Z,5.10
2018-06-08T08:04:51.904Z,5.70
2018-06-08T08:05:52.149Z,5.30
2018-06-08T08:06:52.406Z,5.10
2018-06-08T08:08:01.270Z,5.40
2018-06-08T08:08:53.064Z,5.60
2018-06-08T08:09:53.266Z,5.20
2018-06-08T08:10:53.518Z,5.20
2018-06-08T08:11:53.784Z,5.40
2018-06-08T08:12:54.040Z,5.00
2018-06-08T08:13:54.286Z,5.20
2018-06-08T08:14:54.547Z,5.60
2018-06-08T08:15:54.771Z,5.80
2018-06-08T08:16:55.009Z,5.70
2018-06-08T08:17:55.280Z,5.60
2018-06-08T08:18:55.524Z,5.70
2018-06-08T08:19:55.785Z,5.80
2018-06-08T08:20:56.028Z,5.80
2018-06-08T08:21:56.262Z,5.10
2018-06-08T08:22:56.513Z,5.00
2018-06-08T08:23:56.785Z,5.60
2018-06-08T08:24:57.021Z,5.30
2018-06-08T08:25:57.266Z,5.40
2018-06-08T08:26:57.527Z,4.60
2018-06-08T08:28:06.496Z,5.30
2018-06-08T08:29:06.879Z,5.60
2018-06-08T08:30:08.339Z,5.00
2018-06-08T08:31:08.448Z,5.00
2018-06-08T08:31:59.068Z,4.90
2018-06-08T08:32:59.319Z,5.10
2018-06-08T08:33:59.591Z,5.10
2018-06-08T08:34:59.834Z,5.10
2018-06-08T08:36:00.087Z,5.10
2018-06-08T08:37:00.329Z,5.00
2018-06-08T08:38:00.593Z,5.10
2018-06-08T08:39:00.821Z,4.70
2018-06-08T08:40:01.081Z,5.00
2018-06-08T08:41:01.356Z,5.20
2018-06-08T08:42:01.567Z,5.10
2018-06-08T08:43:01.814Z,5.30
2018-06-08T08:44:02.067Z,5.10
2018-06-08T08:45:02.317Z,5.40
2018-06-08T08:46:02.565Z,5.80
2018-06-08T08:47:02.816Z,6.00
2018-06-08T08:48:03.081Z,5.60
2018-06-08T08:49:03.333Z,5.70
2018-06-08T08:50:03.560Z,5.20
2018-06-08T08:51:03.850Z,5.30
2018-06-08T08:52:04.147Z,6.00
2018-06-08T08:53:04.347Z,5.80
2018-06-08T08:54:04.616Z,4.90
2018-06-08T08:55:04.854Z,4.50
2018-06-08T08:56:05.107Z,4.90
2018-06-08T08:57:05.413Z,4.60
2018-06-08T08:58:05.614Z,4.80
2018-06-08T08:59:05.867Z,4.60
2018-06-08T09:00:06.138Z,4.80
2018-06-08T09:01:06.412Z,5.00
2018-06-08T09:02:06.637Z,5.70
2018-06-08T09:03:06.890Z,4.80
2018-06-08T09:04:07.145Z,4.70
2018-06-08T09:05:07.400Z,4.80
2018-06-08T09:06:07.653Z,5.00
2018-06-08T09:07:07.900Z,5.00
2018-06-08T09:08:08.166Z,5.40
2018-06-08T09:09:08.419Z,5.50
2018-06-08T09:10:08.678Z,5.20
2018-06-08T09:11:08.957Z,5.00
2018-06-08T09:12:09.182Z,5.30
2018-06-08T09:13:09.430Z,5.50
2018-06-08T09:14:09.717Z,5.20
2018-06-08T09:15:09.934Z,4.80
2018-06-08T09:16:10.173Z,5.30
2018-06-08T09:17:10.446Z,5.40
2018-06-08T09:18:10.693Z,5.50
2018-06-08T09:19:10.952Z,5.10
2018-06-08T09:20:11.221Z,5.40
2018-06-08T09:21:11.442Z,5.70
2018-06-08T09:22:11.697Z,5.70
2018-06-08T09:23:11.932Z,5.40
2018-06-08T09:24:12.215Z,5.40
2018-06-08T09:25:12.438Z,5.60
2018-06-08T09:26:21.387Z,6.00
2018-06-08T09:27:13.092Z,5.60
2018-06-08T09:28:13.371Z,5.80
2018-06-08T09:29:13.589Z,5.80
2018-06-08T09:30:13.830Z,5.60
2018-06-08T09:31:14.086Z,5.80
2018-06-08T09:32:14.324Z,6.00
2018-06-08T09:33:14.635Z,5.20
2018-06-08T09:34:14.820Z,5.90
2018-06-08T09:35:15.064Z,6.10
2018-06-08T09:36:15.313Z,5.50
2018-06-08T09:37:15.553Z,5.40
2018-06-08T09:38:15.811Z,5.40
2018-06-08T09:39:16.048Z,5.80
2018-06-08T09:40:16.298Z,5.10
2018-06-08T09:41:16.568Z,5.40
2018-06-08T09:42:16.838Z,5.20
2018-06-08T09:43:17.080Z,5.10
2018-06-08T09:44:17.325Z,5.80
2018-06-08T09:45:17.597Z,5.90
2018-06-08T09:46:17.889Z,5.10
2018-06-08T09:47:18.111Z,5.40
2018-06-08T09:48:18.357Z,5.50
2018-06-08T09:49:18.616Z,5.80
2018-06-08T09:50:18.869Z,5.60
2018-06-08T09:51:19.120Z,5.20
2018-06-08T09:52:19.369Z,5.40
2018-06-08T09:53:19.633Z,5.50
2018-06-08T09:54:19.862Z,5.50
2018-06-08T09:55:20.127Z,4.90
2018-06-08T09:56:20.371Z,5.00
2018-06-08T09:57:20.642Z,5.90
2018-06-08T09:58:20.904Z,5.70
2018-06-08T09:59:21.170Z,5.80
2018-06-08T10:00:21.422Z,5.50
2018-06-08T10:01:21.687Z,5.70
2018-06-08T10:02:21.941Z,5.20
2018-06-08T10:03:30.804Z,5.50
2018-06-08T10:04:31.251Z,5.70
2018-06-08T10:05:32.728Z,5.40
2018-06-08T10:06:23.427Z,5.50
2018-06-08T10:07:34.208Z,5.70
2018-06-08T10:08:32.695Z,5.40
2018-06-08T10:09:35.125Z,6.00
2018-06-08T10:10:34.353Z,5.80
2018-06-08T10:11:34.707Z,5.70
2018-06-08T10:12:34.764Z,5.40
2018-06-08T10:13:35.104Z,6.30
2018-06-08T10:14:35.529Z,5.60
2018-06-08T10:15:34.732Z,6.20
2018-06-08T10:16:37.081Z,6.00
2018-06-08T10:17:26.678Z,5.40
2018-06-08T10:18:37.583Z,5.80
2018-06-08T10:19:36.957Z,6.00
2018-06-08T10:20:37.319Z,5.40
2018-06-08T10:21:36.590Z,5.60
2018-06-08T10:22:28.263Z,5.50
2018-06-08T10:23:37.150Z,4.80
2018-06-08T10:24:36.562Z,5.60
2018-06-08T10:25:29.284Z,5.30
2018-06-08T10:26:29.483Z,5.00
2018-06-08T10:27:38.365Z,5.10
2018-06-08T10:28:38.884Z,5.00
2018-06-08T10:29:39.223Z,5.20
2018-06-08T10:30:38.604Z,5.10
2018-06-08T10:31:31.270Z,5.30
2018-06-08T10:32:42.572Z,4.20
2018-06-08T10:33:40.540Z,5.00
2018-06-08T10:34:40.909Z,4.60
2018-06-08T10:35:41.401Z,4.30
2018-06-08T10:36:33.138Z,4.70
2018-06-08T10:37:33.394Z,4.40
2018-06-08T10:38:33.616Z,4.70
2018-06-08T10:39:33.874Z,5.10
2018-06-08T10:40:42.833Z,4.60
2018-06-08T10:41:43.345Z,4.60
2018-06-08T10:42:34.939Z,4.50
2018-06-08T10:43:44.872Z,4.40
2018-06-08T10:44:44.172Z,4.40
2018-06-08T10:45:44.638Z,4.50
2018-06-08T10:46:36.329Z,4.20
2018-06-08T10:47:36.550Z,4.40
2018-06-08T10:48:36.784Z,4.20
2018-06-08T10:49:45.686Z,4.40
2018-06-08T10:50:37.474Z,4.50
2018-06-08T10:51:37.707Z,4.20
2018-06-08T10:52:46.566Z,4.30
2018-06-08T10:53:46.991Z,4.90
2018-06-08T10:54:38.720Z,4.30
2018-06-08T10:55:38.975Z,4.60
2018-06-08T10:56:39.221Z,4.80
2018-06-08T10:57:39.472Z,4.40
2018-06-08T10:58:39.726Z,4.50
2018-06-08T10:59:39.996Z,4.00
2018-06-08T11:00:48.981Z,5.10
2018-06-08T11:01:40.712Z,5.00
2018-06-08T11:02:40.940Z,4.30
2018-06-08T11:03:49.826Z,4.90
2018-06-08T11:04:41.571Z,4.70
2018-06-08T11:05:41.857Z,4.90
2018-06-08T11:06:42.056Z,5.00
2018-06-08T11:07:42.365Z,4.90
2018-06-08T11:08:42.572Z,4.60
2018-06-08T11:09:42.819Z,4.80
2018-06-08T11:10:43.082Z,4.60
2018-06-08T11:11:43.335Z,4.30
2018-06-08T11:12:43.557Z,4.40
2018-06-08T11:13:43.838Z,4.70
2018-06-08T11:14:44.074Z,4.70
2018-06-08T11:15:44.326Z,4.30
2018-06-08T11:16:44.617Z,4.40
2018-06-08T11:17:44.842Z,4.10
2018-06-08T11:18:45.101Z,3.90
2018-06-08T11:19:45.440Z,3.90
2018-06-08T11:20:45.610Z,3.60
2018-06-08T11:21:45.872Z,4.00
2018-06-08T11:22:46.101Z,3.90
2018-06-08T11:23:46.351Z,4.20
2018-06-08T11:24:46.606Z,4.60
2018-06-08T11:25:46.860Z,4.50
2018-06-08T11:26:47.187Z,3.90
2018-06-08T11:27:47.451Z,4.10
2018-06-08T11:28:47.708Z,4.00
2018-06-08T11:29:47.969Z,3.70
2018-06-08T11:30:48.317Z,4.00
2018-06-08T11:31:48.529Z,4.00
2018-06-08T11:32:48.772Z,3.70
2018-06-08T11:33:49.036Z,3.80
2018-06-08T11:34:49.260Z,3.90
2018-06-08T11:35:49.528Z,3.80
2018-06-08T11:36:49.804Z,3.60
2018-06-08T11:37:50.019Z,3.50
2018-06-08T11:38:50.274Z,3.90
2018-06-08T11:39:50.553Z,3.80
2018-06-08T11:40:50.808Z,4.00
2018-06-08T11:41:51.051Z,3.40
2018-06-08T11:42:51.319Z,3.60
2018-06-08T11:43:51.575Z,3.70
2018-06-08T11:44:51.842Z,3.60
2018-06-08T11:45:52.207Z,3.60
2018-06-08T11:46:52.645Z,3.70
2018-06-08T11:47:52.749Z,3.60
2018-06-08T11:48:53.024Z,3.80
2018-06-08T11:49:53.269Z,3.20
2018-06-08T11:50:53.510Z,3.50
2018-06-08T11:51:53.780Z,4.00
2018-06-08T11:52:54.009Z,3.40
2018-06-08T11:53:54.284Z,3.30
2018-06-08T11:54:54.538Z,3.00
2018-06-08T11:55:54.772Z,3.40
2018-06-08T11:56:55.031Z,3.30
2018-06-08T11:57:55.281Z,3.10
2018-06-08T11:58:55.547Z,3.10
2018-06-08T11:59:55.816Z,3.40
2018-06-08T12:00:56.092Z,3.70
2018-06-08T12:01:56.330Z,3.60
2018-06-08T12:02:56.604Z,3.60
2018-06-08T12:03:56.885Z,3.60
2018-06-08T12:04:57.117Z,3.70
2018-06-08T12:05:57.400Z,3.90
2018-06-08T12:06:57.636Z,3.70
2018-06-08T12:07:57.869Z,3.70
2018-06-08T12:08:58.137Z,3.50
2018-06-08T12:09:58.376Z,4.20
2018-06-08T12:10:58.624Z,3.90
2018-06-08T12:11:58.879Z,4.10
2018-06-08T12:12:59.140Z,4.30
2018-06-08T12:13:59.401Z,4.60
2018-06-08T12:14:59.634Z,4.80
2018-06-08T12:15:59.901Z,4.70
2018-06-08T12:17:00.186Z,4.00
2018-06-08T12:18:00.404Z,4.40
2018-06-08T12:19:00.673Z,5.00
2018-06-08T12:20:00.931Z,4.50
2018-06-08T12:21:01.242Z,4.60
2018-06-08T12:22:01.426Z,4.50
2018-06-08T12:23:01.676Z,4.50
2018-06-08T12:24:01.960Z,4.50
2018-06-08T12:25:02.177Z,4.70
2018-06-08T12:26:02.437Z,4.30
2018-06-08T12:27:02.683Z,4.30
2018-06-08T12:28:02.936Z,4.30
2018-06-08T12:29:03.210Z,4.20
2018-06-08T12:30:03.451Z,3.80
2018-06-08T12:31:03.705Z,4.30
2018-06-08T12:32:03.947Z,4.00
2018-06-08T12:33:04.305Z,4.20
2018-06-08T12:34:04.745Z,4.20
2018-06-08T12:35:04.982Z,4.00
2018-06-08T12:36:05.210Z,4.00
2018-06-08T12:37:05.462Z,3.40
2018-06-08T12:38:05.710Z,3.80
2018-06-08T12:39:05.970Z,4.20
2018-06-08T12:40:06.222Z,4.20
2018-06-08T12:41:06.514Z,3.70
2018-06-08T12:42:06.833Z,3.70
2018-06-08T12:43:07.065Z,3.50
2018-06-08T12:44:07.296Z,3.50
2018-06-08T12:45:07.597Z,3.10
2018-06-08T12:46:08.706Z,3.40
2018-06-08T12:47:09.120Z,3.20
2018-06-08T12:48:08.474Z,3.40
2018-06-08T12:49:09.437Z,3.60
2018-06-08T12:50:09.090Z,3.30
2018-06-08T12:51:09.318Z,2.90
2018-06-08T12:52:09.613Z,3.30
2018-06-08T12:53:09.855Z,3.30
2018-06-08T12:54:10.080Z,3.20
2018-06-08T12:55:10.335Z,3.40
2018-06-08T12:56:10.593Z,3.40
2018-06-08T12:57:10.846Z,3.20
2018-06-08T12:58:11.097Z,3.10
2018-06-08T12:59:11.349Z,3.60
2018-06-08T13:00:11.599Z,3.70
2018-06-08T13:01:11.862Z,3.70
2018-06-08T13:02:12.184Z,3.40
2018-06-08T13:03:12.503Z,3.70
2018-06-08T13:04:12.720Z,3.60
2018-06-08T13:05:12.968Z,3.50
2018-06-08T13:06:13.204Z,3.30
2018-06-08T13:07:13.470Z,3.30
2018-06-08T13:08:13.717Z,3.60